TimeCST,TemperatureF,Dew PointF,Humidity,Sea Level PressureIn,VisibilityMPH,Wind Direction,Wind SpeedMPH,Gust SpeedMPH,PrecipitationIn,Events,Conditions,WindDirDegrees,DateUTC
12:15 AM,37.4,33.8,87,29.82,10.0,West,8.1,-,N/A,,Clear,260,2012-12-04 06:15:00
12:35 AM,37.4,33.8,87,29.83,10.0,West,5.8,-,N/A,,Clear,260,2012-12-04 06:35:00
12:55 AM,37.4,32.0,81,29.83,10.0,WSW,6.9,-,N/A,,Clear,250,2012-12-04 06:55:00
1:15 AM,37.4,32.0,81,29.84,10.0,West,9.2,-,N/A,,Clear,260,2012-12-04 07:15:00
1:35 AM,35.6,32.0,87,29.84,10.0,West,8.1,-,N/A,,Clear,260,2012-12-04 07:35:00
1:55 AM,37.4,32.0,81,29.84,10.0,West,9.2,-,N/A,,Clear,260,2012-12-04 07:55:00
2:15 AM,37.4,32.0,81,29.84,10.0,West,10.4,-,N/A,,Clear,270,2012-12-04 08:15:00
2:35 AM,37.4,32.0,81,29.84,10.0,West,11.5,-,N/A,,Clear,270,2012-12-04 08:35:00
2:55 AM,37.4,32.0,81,29.85,10.0,West,8.1,-,N/A,,Clear,260,2012-12-04 08:55:00
3:15 AM,37.4,30.2,75,29.85,10.0,West,9.2,-,N/A,,Clear,260,2012-12-04 09:15:00
3:35 AM,35.6,30.2,81,29.85,10.0,West,9.2,-,N/A,,Clear,270,2012-12-04 09:35:00
3:55 AM,35.6,30.2,81,29.85,10.0,West,11.5,-,N/A,,Clear,270,2012-12-04 09:55:00
4:15 AM,35.6,30.2,81,29.85,10.0,West,11.5,16.1,N/A,,Clear,270,2012-12-04 10:15:00
4:35 AM,35.6,30.2,81,29.86,10.0,West,10.4,-,N/A,,Clear,270,2012-12-04 10:35:00
4:55 AM,35.6,30.2,81,29.86,10.0,West,9.2,-,N/A,,Clear,270,2012-12-04 10:55:00
5:15 AM,33.8,30.2,87,29.87,10.0,West,9.2,-,N/A,,Clear,270,2012-12-04 11:15:00
5:35 AM,33.8,30.2,87,29.88,10.0,West,9.2,-,N/A,,Clear,260,2012-12-04 11:35:00
5:55 AM,33.8,30.2,87,29.89,10.0,West,6.9,-,N/A,,Clear,260,2012-12-04 11:55:00
6:15 AM,33.8,28.4,81,29.91,10.0,West,9.2,-,N/A,,Clear,270,2012-12-04 12:15:00
6:35 AM,33.8,28.4,81,29.92,10.0,West,8.1,-,N/A,,Clear,260,2012-12-04 12:35:00
6:55 AM,33.8,28.4,81,29.93,10.0,West,12.7,16.1,N/A,,Clear,270,2012-12-04 12:55:00
7:15 AM,32.0,28.4,87,29.93,10.0,West,9.2,-,N/A,,Clear,270,2012-12-04 13:15:00
7:35 AM,32.0,28.4,87,29.94,10.0,West,8.1,-,N/A,,Clear,270,2012-12-04 13:35:00
7:55 AM,32.0,28.4,87,29.95,10.0,West,8.1,-,N/A,,Clear,270,2012-12-04 13:55:00
8:15 AM,33.8,28.4,81,29.95,10.0,West,10.4,-,N/A,,Clear,270,2012-12-04 14:15:00
8:35 AM,33.8,28.4,81,29.96,10.0,West,10.4,16.1,N/A,,Clear,270,2012-12-04 14:35:00
8:55 AM,33.8,26.6,75,29.96,10.0,West,15.0,21.9,N/A,,Clear,280,2012-12-04 14:55:00
9:15 AM,33.8,26.6,75,29.97,10.0,West,10.4,16.1,N/A,,Clear,280,2012-12-04 15:15:00
9:35 AM,33.8,24.8,70,29.98,10.0,West,12.7,20.7,N/A,,Clear,280,2012-12-04 15:35:00
9:55 AM,35.6,24.8,65,29.98,10.0,WNW,17.3,20.7,N/A,,Clear,290,2012-12-04 15:55:00
10:15 AM,35.6,24.8,65,29.99,10.0,West,15.0,20.7,N/A,,Clear,270,2012-12-04 16:15:00
10:35 AM,35.6,23.0,60,29.99,10.0,WNW,13.8,21.9,N/A,,Clear,290,2012-12-04 16:35:00
10:55 AM,35.6,23.0,60,29.99,10.0,WNW,16.1,20.7,N/A,,Clear,290,2012-12-04 16:55:00
11:15 AM,35.6,23.0,60,29.99,10.0,West,17.3,23.0,N/A,,Clear,280,2012-12-04 17:15:00
11:35 AM,35.6,23.0,60,29.99,10.0,WNW,18.4,23.0,N/A,,Clear,290,2012-12-04 17:35:00
11:55 AM,35.6,23.0,60,29.99,10.0,WNW,12.7,24.2,N/A,,Clear,290,2012-12-04 17:55:00
12:15 PM,35.6,21.2,56,30.00,10.0,West,17.3,23.0,N/A,,Clear,280,2012-12-04 18:15:00
12:35 PM,35.6,21.2,56,30.00,10.0,West,18.4,-,N/A,,Clear,270,2012-12-04 18:35:00
12:55 PM,35.6,21.2,56,30.01,10.0,West,16.1,21.9,N/A,,Clear,280,2012-12-04 18:55:00
1:15 PM,35.6,21.2,56,30.02,10.0,WNW,10.4,17.3,N/A,,Clear,300,2012-12-04 19:15:00
1:35 PM,33.8,19.4,56,30.03,10.0,WNW,12.7,20.7,N/A,,Clear,300,2012-12-04 19:35:00
1:55 PM,33.8,19.4,56,30.04,10.0,WNW,13.8,24.2,N/A,,Clear,300,2012-12-04 19:55:00
2:15 PM,33.8,17.6,52,30.05,10.0,WNW,15.0,24.2,N/A,,Clear,290,2012-12-04 20:15:00
2:35 PM,32.0,17.6,55,30.06,10.0,NW,18.4,21.9,N/A,,Clear,320,2012-12-04 20:35:00
2:55 PM,32.0,15.8,51,30.07,10.0,WNW,15.0,23.0,N/A,,Clear,300,2012-12-04 20:55:00
3:15 PM,32.0,15.8,51,30.09,10.0,NW,8.1,-,N/A,,Clear,310,2012-12-04 21:15:00
3:35 PM,32.0,15.8,51,30.10,10.0,NW,11.5,16.1,N/A,,Clear,310,2012-12-04 21:35:00
3:55 PM,30.2,14.0,51,30.12,10.0,NW,12.7,-,N/A,,Clear,310,2012-12-04 21:55:00
4:15 PM,28.4,12.2,51,30.13,10.0,NW,11.5,18.4,N/A,,Clear,310,2012-12-04 22:15:00
4:35 PM,28.4,10.4,47,30.13,10.0,NW,9.2,19.6,N/A,,Clear,320,2012-12-04 22:35:00
4:55 PM,28.4,10.4,47,30.14,10.0,WNW,5.8,-,N/A,,Clear,300,2012-12-04 22:55:00
5:15 PM,28.4,10.4,47,30.15,10.0,WNW,9.2,17.3,N/A,,Clear,300,2012-12-04 23:15:00
5:35 PM,26.6,8.6,47,30.17,10.0,WNW,11.5,20.7,N/A,,Clear,300,2012-12-04 23:35:00
5:55 PM,26.6,8.6,47,30.18,10.0,NW,13.8,24.2,N/A,,Clear,320,2012-12-04 23:55:00
6:15 PM,26.6,8.6,47,30.19,10.0,NNW,12.7,19.6,N/A,,Clear,330,2012-12-05 00:15:00
6:35 PM,24.8,10.4,54,30.20,10.0,NNW,8.1,18.4,N/A,,Clear,330,2012-12-05 00:35:00
6:55 PM,24.8,10.4,54,30.21,10.0,NW,12.7,17.3,N/A,,Clear,320,2012-12-05 00:55:00
7:15 PM,23.0,10.4,59,30.22,10.0,NW,10.4,-,N/A,,Clear,320,2012-12-05 01:15:00
7:35 PM,23.0,10.4,59,30.22,10.0,NNW,9.2,-,N/A,,Clear,330,2012-12-05 01:35:00
7:55 PM,23.0,10.4,59,30.23,10.0,NNW,6.9,-,N/A,,Clear,330,2012-12-05 01:55:00
8:15 PM,23.0,10.4,59,30.24,10.0,NNW,6.9,-,N/A,,Clear,330,2012-12-05 02:15:00
8:35 PM,23.0,10.4,59,30.25,10.0,NNW,10.4,-,N/A,,Clear,340,2012-12-05 02:35:00
8:55 PM,21.2,10.4,63,30.26,10.0,North,6.9,-,N/A,,Clear,350,2012-12-05 02:55:00
9:15 PM,21.2,10.4,63,30.27,10.0,North,8.1,18.4,N/A,,Clear,350,2012-12-05 03:15:00
9:35 PM,21.2,10.4,63,30.28,10.0,North,4.6,-,N/A,,Clear,350,2012-12-05 03:35:00
9:55 PM,19.4,10.4,68,30.28,10.0,NNW,4.6,-,N/A,,Clear,340,2012-12-05 03:55:00
10:15 PM,19.4,10.4,68,30.28,10.0,Calm,Calm,-,N/A,,Clear,0,2012-12-05 04:15:00
10:35 PM,19.4,10.4,68,30.29,10.0,NNW,3.5,-,N/A,,Clear,340,2012-12-05 04:35:00
10:55 PM,19.4,10.4,68,30.29,10.0,NNW,3.5,-,N/A,,Clear,340,2012-12-05 04:55:00
11:15 PM,19.4,10.4,68,30.30,10.0,Calm,Calm,-,N/A,,Clear,0,2012-12-05 05:15:00
11:35 PM,19.4,10.4,68,30.31,10.0,NW,3.5,-,N/A,,Scattered Clouds,320,2012-12-05 05:35:00
11:55 PM,19.4,10.4,68,30.32,10.0,Calm,Calm,-,N/A,,Scattered Clouds,0,2012-12-05 05:55:00